sensor_id;sensor_type;location;lat;lon;timestamp;P1;durP1;ratioP1;P2;durP2;ratioP2
29838;SDS011;18669;53.356;-1.464;2023-05-07T00:02:15;15.02;;;11.35;;
29838;SDS011;18669;53.356;-1.464;2023-05-07T00:05:01;15.85;;;11.95;;
29838;SDS011;18669;53.356;-1.464;2023-05-07T00:07:46;12.13;;;10.40;;
29838;SDS011;18669;53.356;-1.464;2023-05-07T00:10:31;17.88;;;10.93;;
29838;SDS011;18669;53.356;-1.464;2023-05-07T00:13:16;14.85;;;10.70;;
29838;SDS011;18669;53.356;-1.464;2023-05-07T00:16:01;16.80;;;10.48;;
29838;SDS011;18669;53.356;-1.464;2023-05-07T00:18:47;12.55;;;9.98;;
29838;SDS011;18669;53.356;-1.464;2023-05-07T00:21:32;15.95;;;10.70;;
29838;SDS011;18669;53.356;-1.464;2023-05-07T00:24:16;12.30;;;9.85;;
29838;SDS011;18669;53.356;-1.464;2023-05-07T00:27:01;15.60;;;10.73;;
29838;SDS011;18669;53.356;-1.464;2023-05-07T00:29:46;12.85;;;9.45;;
29838;SDS011;18669;53.356;-1.464;2023-05-07T00:32:31;15.48;;;11.15;;
29838;SDS011;18669;53.356;-1.464;2023-05-07T00:35:16;15.52;;;11.60;;
29838;SDS011;18669;53.356;-1.464;2023-05-07T00:38:01;13.68;;;11.10;;
29838;SDS011;18669;53.356;-1.464;2023-05-07T00:40:46;17.17;;;11.50;;
29838;SDS011;18669;53.356;-1.464;2023-05-07T00:43:31;13.40;;;10.85;;
29838;SDS011;18669;53.356;-1.464;2023-05-07T00:46:16;16.58;;;10.75;;
29838;SDS011;18669;53.356;-1.464;2023-05-07T00:49:01;13.38;;;10.70;;
29838;SDS011;18669;53.356;-1.464;2023-05-07T00:51:46;12.80;;;10.38;;
29838;SDS011;18669;53.356;-1.464;2023-05-07T00:54:31;14.77;;;10.90;;
29838;SDS011;18669;53.356;-1.464;2023-05-07T00:57:18;15.27;;;11.55;;
29838;SDS011;18669;53.356;-1.464;2023-05-07T01:02:49;14.63;;;10.77;;
29838;SDS011;18669;53.356;-1.464;2023-05-07T01:05:34;16.13;;;10.88;;
29838;SDS011;18669;53.356;-1.464;2023-05-07T01:08:19;16.05;;;11.45;;
29838;SDS011;18669;53.356;-1.464;2023-05-07T01:13:52;13.27;;;9.60;;
29838;SDS011;18669;53.356;-1.464;2023-05-07T01:16:37;16.13;;;11.60;;
29838;SDS011;18669;53.356;-1.464;2023-05-07T01:19:22;18.10;;;10.80;;
29838;SDS011;18669;53.356;-1.464;2023-05-07T01:22:08;19.63;;;10.65;;
29838;SDS011;18669;53.356;-1.464;2023-05-07T01:24:55;17.67;;;11.95;;
29838;SDS011;18669;53.356;-1.464;2023-05-07T01:27:40;16.85;;;11.88;;
29838;SDS011;18669;53.356;-1.464;2023-05-07T01:30:25;15.98;;;11.35;;
29838;SDS011;18669;53.356;-1.464;2023-05-07T01:33:11;13.50;;;10.15;;
29838;SDS011;18669;53.356;-1.464;2023-05-07T01:36:00;16.58;;;10.93;;
29838;SDS011;18669;53.356;-1.464;2023-05-07T01:38:47;19.48;;;11.57;;
29838;SDS011;18669;53.356;-1.464;2023-05-07T01:41:32;17.83;;;11.48;;
29838;SDS011;18669;53.356;-1.464;2023-05-07T01:44:18;16.85;;;11.25;;
29838;SDS011;18669;53.356;-1.464;2023-05-07T01:47:04;18.65;;;11.10;;
29838;SDS011;18669;53.356;-1.464;2023-05-07T01:49:48;16.52;;;11.48;;
29838;SDS011;18669;53.356;-1.464;2023-05-07T01:52:34;17.23;;;12.50;;
29838;SDS011;18669;53.356;-1.464;2023-05-07T01:55:19;16.90;;;11.00;;
29838;SDS011;18669;53.356;-1.464;2023-05-07T01:58:04;17.90;;;11.82;;
29838;SDS011;18669;53.356;-1.464;2023-05-07T02:00:49;14.18;;;9.80;;
29838;SDS011;18669;53.356;-1.464;2023-05-07T02:03:33;14.95;;;10.93;;
29838;SDS011;18669;53.356;-1.464;2023-05-07T02:06:19;18.92;;;11.77;;
29838;SDS011;18669;53.356;-1.464;2023-05-07T02:09:04;18.42;;;11.93;;
29838;SDS011;18669;53.356;-1.464;2023-05-07T02:11:49;18.45;;;12.38;;
29838;SDS011;18669;53.356;-1.464;2023-05-07T02:14:34;16.48;;;11.48;;
29838;SDS011;18669;53.356;-1.464;2023-05-07T02:17:18;19.40;;;11.63;;
29838;SDS011;18669;53.356;-1.464;2023-05-07T02:20:04;17.65;;;11.88;;
29838;SDS011;18669;53.356;-1.464;2023-05-07T02:22:49;17.45;;;11.52;;
29838;SDS011;18669;53.356;-1.464;2023-05-07T02:25:33;14.95;;;9.90;;
29838;SDS011;18669;53.356;-1.464;2023-05-07T02:28:18;15.38;;;10.25;;
29838;SDS011;18669;53.356;-1.464;2023-05-07T02:31:03;18.20;;;10.70;;
29838;SDS011;18669;53.356;-1.464;2023-05-07T02:33:48;18.73;;;10.32;;
29838;SDS011;18669;53.356;-1.464;2023-05-07T02:36:33;14.10;;;9.77;;
29838;SDS011;18669;53.356;-1.464;2023-05-07T02:39:18;16.77;;;11.18;;
29838;SDS011;18669;53.356;-1.464;2023-05-07T02:42:03;17.40;;;12.32;;
29838;SDS011;18669;53.356;-1.464;2023-05-07T02:44:48;20.33;;;11.68;;
29838;SDS011;18669;53.356;-1.464;2023-05-07T02:47:33;15.60;;;10.73;;
29838;SDS011;18669;53.356;-1.464;2023-05-07T02:50:18;16.10;;;10.77;;
29838;SDS011;18669;53.356;-1.464;2023-05-07T02:53:02;14.02;;;10.05;;
29838;SDS011;18669;53.356;-1.464;2023-05-07T02:55:47;17.52;;;9.93;;
29838;SDS011;18669;53.356;-1.464;2023-05-07T02:58:32;15.82;;;10.90;;
29838;SDS011;18669;53.356;-1.464;2023-05-07T03:01:17;16.35;;;10.38;;
29838;SDS011;18669;53.356;-1.464;2023-05-07T03:04:02;14.68;;;10.07;;
29838;SDS011;18669;53.356;-1.464;2023-05-07T03:06:47;14.70;;;10.18;;
29838;SDS011;18669;53.356;-1.464;2023-05-07T03:09:32;17.35;;;11.30;;
29838;SDS011;18669;53.356;-1.464;2023-05-07T03:12:17;15.38;;;10.90;;
29838;SDS011;18669;53.356;-1.464;2023-05-07T03:15:02;16.27;;;11.07;;
29838;SDS011;18669;53.356;-1.464;2023-05-07T03:17:47;16.60;;;11.05;;
29838;SDS011;18669;53.356;-1.464;2023-05-07T03:20:32;20.85;;;10.57;;
29838;SDS011;18669;53.356;-1.464;2023-05-07T03:23:16;18.13;;;10.10;;
29838;SDS011;18669;53.356;-1.464;2023-05-07T03:26:01;17.30;;;9.77;;
29838;SDS011;18669;53.356;-1.464;2023-05-07T03:28:46;17.92;;;9.57;;
29838;SDS011;18669;53.356;-1.464;2023-05-07T03:31:31;12.82;;;9.15;;
29838;SDS011;18669;53.356;-1.464;2023-05-07T03:34:16;17.23;;;10.45;;
29838;SDS011;18669;53.356;-1.464;2023-05-07T03:37:06;18.73;;;10.43;;
29838;SDS011;18669;53.356;-1.464;2023-05-07T03:39:51;18.10;;;10.75;;
29838;SDS011;18669;53.356;-1.464;2023-05-07T03:42:36;22.23;;;11.60;;
29838;SDS011;18669;53.356;-1.464;2023-05-07T03:45:21;16.67;;;9.65;;
29838;SDS011;18669;53.356;-1.464;2023-05-07T03:48:06;18.83;;;11.60;;
29838;SDS011;18669;53.356;-1.464;2023-05-07T03:50:50;19.17;;;11.43;;
29838;SDS011;18669;53.356;-1.464;2023-05-07T03:53:36;13.45;;;9.05;;
29838;SDS011;18669;53.356;-1.464;2023-05-07T03:56:20;18.08;;;11.05;;
29838;SDS011;18669;53.356;-1.464;2023-05-07T03:59:05;15.82;;;9.85;;
29838;SDS011;18669;53.356;-1.464;2023-05-07T04:01:50;23.17;;;11.45;;
29838;SDS011;18669;53.356;-1.464;2023-05-07T04:04:35;20.15;;;10.27;;
29838;SDS011;18669;53.356;-1.464;2023-05-07T04:07:20;20.48;;;10.27;;
29838;SDS011;18669;53.356;-1.464;2023-05-07T04:10:05;21.48;;;10.90;;
29838;SDS011;18669;53.356;-1.464;2023-05-07T04:12:50;16.95;;;10.25;;
29838;SDS011;18669;53.356;-1.464;2023-05-07T04:15:35;19.25;;;10.80;;
29838;SDS011;18669;53.356;-1.464;2023-05-07T04:18:20;17.55;;;9.88;;
29838;SDS011;18669;53.356;-1.464;2023-05-07T04:21:05;16.17;;;10.57;;
29838;SDS011;18669;53.356;-1.464;2023-05-07T04:23:50;18.30;;;10.05;;
29838;SDS011;18669;53.356;-1.464;2023-05-07T04:26:35;14.73;;;9.73;;
29838;SDS011;18669;53.356;-1.464;2023-05-07T04:29:20;20.63;;;10.27;;
29838;SDS011;18669;53.356;-1.464;2023-05-07T04:32:05;17.17;;;9.88;;
29838;SDS011;18669;53.356;-1.464;2023-05-07T04:34:50;15.65;;;9.35;;
29838;SDS011;18669;53.356;-1.464;2023-05-07T04:37:34;16.15;;;10.20;;
29838;SDS011;18669;53.356;-1.464;2023-05-07T04:40:20;19.00;;;10.27;;
29838;SDS011;18669;53.356;-1.464;2023-05-07T04:43:05;19.40;;;10.40;;
29838;SDS011;18669;53.356;-1.464;2023-05-07T04:45:50;15.25;;;9.23;;
29838;SDS011;18669;53.356;-1.464;2023-05-07T04:48:35;19.30;;;11.50;;
29838;SDS011;18669;53.356;-1.464;2023-05-07T04:51:20;20.23;;;10.98;;
29838;SDS011;18669;53.356;-1.464;2023-05-07T04:54:06;19.08;;;9.55;;
29838;SDS011;18669;53.356;-1.464;2023-05-07T04:56:50;20.30;;;10.88;;
29838;SDS011;18669;53.356;-1.464;2023-05-07T04:59:35;20.83;;;10.40;;
29838;SDS011;18669;53.356;-1.464;2023-05-07T05:02:20;16.95;;;9.95;;
29838;SDS011;18669;53.356;-1.464;2023-05-07T05:05:05;13.57;;;8.70;;
29838;SDS011;18669;53.356;-1.464;2023-05-07T05:07:50;18.65;;;10.70;;
29838;SDS011;18669;53.356;-1.464;2023-05-07T05:10:36;21.38;;;11.73;;
29838;SDS011;18669;53.356;-1.464;2023-05-07T05:13:21;15.55;;;9.77;;
29838;SDS011;18669;53.356;-1.464;2023-05-07T05:16:06;17.05;;;10.32;;
29838;SDS011;18669;53.356;-1.464;2023-05-07T05:18:50;23.88;;;12.05;;
29838;SDS011;18669;53.356;-1.464;2023-05-07T05:21:36;22.50;;;12.07;;
29838;SDS011;18669;53.356;-1.464;2023-05-07T05:24:21;18.33;;;10.55;;
29838;SDS011;18669;53.356;-1.464;2023-05-07T05:27:06;16.25;;;9.95;;
29838;SDS011;18669;53.356;-1.464;2023-05-07T05:29:51;16.48;;;9.82;;
29838;SDS011;18669;53.356;-1.464;2023-05-07T05:32:35;16.83;;;9.55;;
29838;SDS011;18669;53.356;-1.464;2023-05-07T05:35:20;16.23;;;9.63;;
29838;SDS011;18669;53.356;-1.464;2023-05-07T05:38:05;16.88;;;9.20;;
29838;SDS011;18669;53.356;-1.464;2023-05-07T05:40:50;15.18;;;11.00;;
29838;SDS011;18669;53.356;-1.464;2023-05-07T05:43:35;24.15;;;12.75;;
29838;SDS011;18669;53.356;-1.464;2023-05-07T05:46:20;16.80;;;10.20;;
29838;SDS011;18669;53.356;-1.464;2023-05-07T05:49:05;9.75;;;6.18;;
29838;SDS011;18669;53.356;-1.464;2023-05-07T05:51:50;7.85;;;5.32;;
29838;SDS011;18669;53.356;-1.464;2023-05-07T05:54:35;8.00;;;5.63;;
29838;SDS011;18669;53.356;-1.464;2023-05-07T05:57:20;7.82;;;4.95;;
29838;SDS011;18669;53.356;-1.464;2023-05-07T06:00:05;9.18;;;4.97;;
29838;SDS011;18669;53.356;-1.464;2023-05-07T06:02:51;4.60;;;3.90;;
29838;SDS011;18669;53.356;-1.464;2023-05-07T06:05:36;6.00;;;3.85;;
29838;SDS011;18669;53.356;-1.464;2023-05-07T06:08:20;7.10;;;4.00;;
29838;SDS011;18669;53.356;-1.464;2023-05-07T06:11:05;4.72;;;3.78;;
29838;SDS011;18669;53.356;-1.464;2023-05-07T06:13:51;4.43;;;3.40;;
29838;SDS011;18669;53.356;-1.464;2023-05-07T06:16:36;3.72;;;3.17;;
29838;SDS011;18669;53.356;-1.464;2023-05-07T06:19:22;3.37;;;3.00;;
29838;SDS011;18669;53.356;-1.464;2023-05-07T06:22:08;3.85;;;2.78;;
29838;SDS011;18669;53.356;-1.464;2023-05-07T06:24:53;4.60;;;3.33;;
29838;SDS011;18669;53.356;-1.464;2023-05-07T06:27:39;4.13;;;3.37;;
29838;SDS011;18669;53.356;-1.464;2023-05-07T06:30:24;4.88;;;4.22;;
29838;SDS011;18669;53.356;-1.464;2023-05-07T06:33:11;5.15;;;3.55;;
29838;SDS011;18669;53.356;-1.464;2023-05-07T06:35:56;7.95;;;4.30;;
29838;SDS011;18669;53.356;-1.464;2023-05-07T06:38:42;5.82;;;4.10;;
29838;SDS011;18669;53.356;-1.464;2023-05-07T06:44:14;6.03;;;4.70;;
29838;SDS011;18669;53.356;-1.464;2023-05-07T06:47:00;6.70;;;4.60;;
29838;SDS011;18669;53.356;-1.464;2023-05-07T06:49:46;4.78;;;4.07;;
29838;SDS011;18669;53.356;-1.464;2023-05-07T06:52:32;6.97;;;4.05;;
29838;SDS011;18669;53.356;-1.464;2023-05-07T06:55:20;5.30;;;4.55;;
29838;SDS011;18669;53.356;-1.464;2023-05-07T06:58:06;6.35;;;4.38;;
29838;SDS011;18669;53.356;-1.464;2023-05-07T07:00:52;6.05;;;4.47;;
29838;SDS011;18669;53.356;-1.464;2023-05-07T07:03:37;5.65;;;4.75;;
29838;SDS011;18669;53.356;-1.464;2023-05-07T07:06:23;5.23;;;4.67;;
29838;SDS011;18669;53.356;-1.464;2023-05-07T07:09:08;5.68;;;4.18;;
29838;SDS011;18669;53.356;-1.464;2023-05-07T07:11:55;8.82;;;4.40;;
29838;SDS011;18669;53.356;-1.464;2023-05-07T07:14:41;5.90;;;4.40;;
29838;SDS011;18669;53.356;-1.464;2023-05-07T07:17:28;8.02;;;5.47;;
29838;SDS011;18669;53.356;-1.464;2023-05-07T07:20:14;8.20;;;4.95;;
29838;SDS011;18669;53.356;-1.464;2023-05-07T07:22:59;7.72;;;5.40;;
29838;SDS011;18669;53.356;-1.464;2023-05-07T07:25:44;6.53;;;4.97;;
29838;SDS011;18669;53.356;-1.464;2023-05-07T07:28:29;8.57;;;5.55;;
29838;SDS011;18669;53.356;-1.464;2023-05-07T07:31:14;6.22;;;5.07;;
29838;SDS011;18669;53.356;-1.464;2023-05-07T07:33:59;9.90;;;5.65;;
29838;SDS011;18669;53.356;-1.464;2023-05-07T07:36:44;6.45;;;4.97;;
29838;SDS011;18669;53.356;-1.464;2023-05-07T07:39:28;5.75;;;4.95;;
29838;SDS011;18669;53.356;-1.464;2023-05-07T07:42:13;9.57;;;5.72;;
29838;SDS011;18669;53.356;-1.464;2023-05-07T07:44:58;6.88;;;5.13;;
29838;SDS011;18669;53.356;-1.464;2023-05-07T07:47:43;6.10;;;4.53;;
29838;SDS011;18669;53.356;-1.464;2023-05-07T07:50:28;7.38;;;5.05;;
29838;SDS011;18669;53.356;-1.464;2023-05-07T07:53:12;11.38;;;5.97;;
29838;SDS011;18669;53.356;-1.464;2023-05-07T07:55:57;10.05;;;6.05;;
29838;SDS011;18669;53.356;-1.464;2023-05-07T07:58:42;8.90;;;5.82;;
29838;SDS011;18669;53.356;-1.464;2023-05-07T08:01:29;7.63;;;5.35;;
29838;SDS011;18669;53.356;-1.464;2023-05-07T08:04:14;6.95;;;5.15;;
29838;SDS011;18669;53.356;-1.464;2023-05-07T08:06:59;8.32;;;5.28;;
29838;SDS011;18669;53.356;-1.464;2023-05-07T08:09:44;5.93;;;4.35;;
29838;SDS011;18669;53.356;-1.464;2023-05-07T08:12:29;7.63;;;4.78;;
29838;SDS011;18669;53.356;-1.464;2023-05-07T08:15:14;6.28;;;4.40;;
29838;SDS011;18669;53.356;-1.464;2023-05-07T08:17:59;5.30;;;3.90;;
29838;SDS011;18669;53.356;-1.464;2023-05-07T08:20:44;6.72;;;4.32;;
29838;SDS011;18669;53.356;-1.464;2023-05-07T08:23:29;5.07;;;4.15;;
29838;SDS011;18669;53.356;-1.464;2023-05-07T08:26:15;4.57;;;3.50;;
29838;SDS011;18669;53.356;-1.464;2023-05-07T08:28:59;5.13;;;3.60;;
29838;SDS011;18669;53.356;-1.464;2023-05-07T08:31:44;3.97;;;2.97;;
29838;SDS011;18669;53.356;-1.464;2023-05-07T08:34:29;5.45;;;3.67;;
29838;SDS011;18669;53.356;-1.464;2023-05-07T08:37:14;5.15;;;3.25;;
29838;SDS011;18669;53.356;-1.464;2023-05-07T08:39:59;5.18;;;3.60;;
29838;SDS011;18669;53.356;-1.464;2023-05-07T08:42:44;4.47;;;3.30;;
29838;SDS011;18669;53.356;-1.464;2023-05-07T08:45:30;5.87;;;3.13;;
29838;SDS011;18669;53.356;-1.464;2023-05-07T08:48:17;5.43;;;3.22;;
29838;SDS011;18669;53.356;-1.464;2023-05-07T08:51:02;4.78;;;2.90;;
29838;SDS011;18669;53.356;-1.464;2023-05-07T08:53:47;4.07;;;2.80;;
29838;SDS011;18669;53.356;-1.464;2023-05-07T08:56:34;5.53;;;2.83;;
29838;SDS011;18669;53.356;-1.464;2023-05-07T08:59:19;4.75;;;2.35;;
29838;SDS011;18669;53.356;-1.464;2023-05-07T09:02:04;5.07;;;2.40;;
29838;SDS011;18669;53.356;-1.464;2023-05-07T09:04:51;5.40;;;2.53;;
29838;SDS011;18669;53.356;-1.464;2023-05-07T09:07:37;3.90;;;2.47;;
29838;SDS011;18669;53.356;-1.464;2023-05-07T09:10:22;3.38;;;2.10;;
29838;SDS011;18669;53.356;-1.464;2023-05-07T09:13:07;3.38;;;2.35;;
29838;SDS011;18669;53.356;-1.464;2023-05-07T09:15:53;3.58;;;2.50;;
29838;SDS011;18669;53.356;-1.464;2023-05-07T09:18:42;2.30;;;2.10;;
29838;SDS011;18669;53.356;-1.464;2023-05-07T09:21:27;3.72;;;2.40;;
29838;SDS011;18669;53.356;-1.464;2023-05-07T09:24:14;2.97;;;2.50;;
29838;SDS011;18669;53.356;-1.464;2023-05-07T09:27:00;2.97;;;2.15;;
29838;SDS011;18669;53.356;-1.464;2023-05-07T09:29:46;2.35;;;2.10;;
29838;SDS011;18669;53.356;-1.464;2023-05-07T09:32:33;4.50;;;3.33;;
29838;SDS011;18669;53.356;-1.464;2023-05-07T09:35:19;3.63;;;2.60;;
29838;SDS011;18669;53.356;-1.464;2023-05-07T09:38:06;3.70;;;2.97;;
29838;SDS011;18669;53.356;-1.464;2023-05-07T09:41:08;6.60;;;2.63;;
29838;SDS011;18669;53.356;-1.464;2023-05-07T09:43:55;4.53;;;2.30;;
29838;SDS011;18669;53.356;-1.464;2023-05-07T09:46:41;5.55;;;2.75;;
29838;SDS011;18669;53.356;-1.464;2023-05-07T09:49:28;4.90;;;3.10;;
29838;SDS011;18669;53.356;-1.464;2023-05-07T09:52:14;5.88;;;4.30;;
29838;SDS011;18669;53.356;-1.464;2023-05-07T09:57:48;7.93;;;2.97;;
29838;SDS011;18669;53.356;-1.464;2023-05-07T10:00:35;7.00;;;3.08;;
29838;SDS011;18669;53.356;-1.464;2023-05-07T10:03:22;3.28;;;2.85;;
29838;SDS011;18669;53.356;-1.464;2023-05-07T10:06:10;4.20;;;3.20;;
29838;SDS011;18669;53.356;-1.464;2023-05-07T10:11:41;3.95;;;2.75;;
29838;SDS011;18669;53.356;-1.464;2023-05-07T10:14:27;4.72;;;2.97;;
29838;SDS011;18669;53.356;-1.464;2023-05-07T10:17:12;6.25;;;2.63;;
29838;SDS011;18669;53.356;-1.464;2023-05-07T10:20:00;4.63;;;2.55;;
29838;SDS011;18669;53.356;-1.464;2023-05-07T10:22:45;3.55;;;2.50;;
29838;SDS011;18669;53.356;-1.464;2023-05-07T10:25:32;4.35;;;2.42;;
29838;SDS011;18669;53.356;-1.464;2023-05-07T10:28:17;3.53;;;2.60;;
29838;SDS011;18669;53.356;-1.464;2023-05-07T10:34:05;5.13;;;2.65;;
29838;SDS011;18669;53.356;-1.464;2023-05-07T10:36:57;4.13;;;2.20;;
29838;SDS011;18669;53.356;-1.464;2023-05-07T10:39:41;2.72;;;1.80;;
29838;SDS011;18669;53.356;-1.464;2023-05-07T10:42:27;2.40;;;1.95;;
29838;SDS011;18669;53.356;-1.464;2023-05-07T10:45:12;3.30;;;1.80;;
29838;SDS011;18669;53.356;-1.464;2023-05-07T10:51:18;2.80;;;1.83;;
29838;SDS011;18669;53.356;-1.464;2023-05-07T10:56:56;3.40;;;1.85;;
29838;SDS011;18669;53.356;-1.464;2023-05-07T10:59:40;4.32;;;2.22;;
29838;SDS011;18669;53.356;-1.464;2023-05-07T11:05:44;3.15;;;1.60;;
29838;SDS011;18669;53.356;-1.464;2023-05-07T11:11:49;5.13;;;2.10;;
29838;SDS011;18669;53.356;-1.464;2023-05-07T11:17:25;5.32;;;2.05;;
29838;SDS011;18669;53.356;-1.464;2023-05-07T11:20:11;2.70;;;1.60;;
29838;SDS011;18669;53.356;-1.464;2023-05-07T11:22:56;3.67;;;2.05;;
29838;SDS011;18669;53.356;-1.464;2023-05-07T11:25:41;7.70;;;1.67;;
29838;SDS011;18669;53.356;-1.464;2023-05-07T11:28:27;3.17;;;1.80;;
29838;SDS011;18669;53.356;-1.464;2023-05-07T11:31:13;3.00;;;1.80;;
29838;SDS011;18669;53.356;-1.464;2023-05-07T11:34:00;2.53;;;1.45;;
29838;SDS011;18669;53.356;-1.464;2023-05-07T11:36:45;3.33;;;1.70;;
29838;SDS011;18669;53.356;-1.464;2023-05-07T11:42:30;3.03;;;1.45;;
29838;SDS011;18669;53.356;-1.464;2023-05-07T11:45:22;8.93;;;1.58;;
29838;SDS011;18669;53.356;-1.464;2023-05-07T11:48:11;1.52;;;1.17;;
29838;SDS011;18669;53.356;-1.464;2023-05-07T11:51:03;3.83;;;1.42;;
29838;SDS011;18669;53.356;-1.464;2023-05-07T11:53:56;3.35;;;1.60;;
29838;SDS011;18669;53.356;-1.464;2023-05-07T11:56:41;5.10;;;1.67;;
29838;SDS011;18669;53.356;-1.464;2023-05-07T11:59:26;4.07;;;1.30;;
29838;SDS011;18669;53.356;-1.464;2023-05-07T12:02:11;3.05;;;1.23;;
29838;SDS011;18669;53.356;-1.464;2023-05-07T12:05:01;3.33;;;1.10;;
29838;SDS011;18669;53.356;-1.464;2023-05-07T12:07:46;3.10;;;1.30;;
29838;SDS011;18669;53.356;-1.464;2023-05-07T12:10:31;3.13;;;1.33;;
29838;SDS011;18669;53.356;-1.464;2023-05-07T12:13:34;3.90;;;1.35;;
29838;SDS011;18669;53.356;-1.464;2023-05-07T12:16:19;5.05;;;1.55;;
29838;SDS011;18669;53.356;-1.464;2023-05-07T12:19:06;4.22;;;1.52;;
29838;SDS011;18669;53.356;-1.464;2023-05-07T12:21:53;7.90;;;1.10;;
29838;SDS011;18669;53.356;-1.464;2023-05-07T12:24:57;2.65;;;1.17;;
29838;SDS011;18669;53.356;-1.464;2023-05-07T12:27:42;2.67;;;1.10;;
29838;SDS011;18669;53.356;-1.464;2023-05-07T12:30:27;3.20;;;1.20;;
29838;SDS011;18669;53.356;-1.464;2023-05-07T12:33:16;2.47;;;1.30;;
29838;SDS011;18669;53.356;-1.464;2023-05-07T12:36:07;5.50;;;1.50;;
29838;SDS011;18669;53.356;-1.464;2023-05-07T12:38:52;3.13;;;1.00;;
29838;SDS011;18669;53.356;-1.464;2023-05-07T12:44:52;3.15;;;1.38;;
29838;SDS011;18669;53.356;-1.464;2023-05-07T12:47:36;6.13;;;1.83;;
29838;SDS011;18669;53.356;-1.464;2023-05-07T12:50:22;3.67;;;1.63;;
29838;SDS011;18669;53.356;-1.464;2023-05-07T12:53:07;4.10;;;1.48;;
29838;SDS011;18669;53.356;-1.464;2023-05-07T12:55:56;3.20;;;1.23;;
29838;SDS011;18669;53.356;-1.464;2023-05-07T12:58:41;3.13;;;1.10;;
29838;SDS011;18669;53.356;-1.464;2023-05-07T13:01:30;4.03;;;1.90;;
29838;SDS011;18669;53.356;-1.464;2023-05-07T13:04:15;10.15;;;1.50;;
29838;SDS011;18669;53.356;-1.464;2023-05-07T13:07:00;6.80;;;1.50;;
29838;SDS011;18669;53.356;-1.464;2023-05-07T13:09:45;8.10;;;1.90;;
29838;SDS011;18669;53.356;-1.464;2023-05-07T13:12:32;6.03;;;1.58;;
29838;SDS011;18669;53.356;-1.464;2023-05-07T13:15:17;6.57;;;1.60;;
29838;SDS011;18669;53.356;-1.464;2023-05-07T13:18:02;5.87;;;1.80;;
29838;SDS011;18669;53.356;-1.464;2023-05-07T13:20:47;5.07;;;1.80;;
29838;SDS011;18669;53.356;-1.464;2023-05-07T13:23:31;5.20;;;1.37;;
29838;SDS011;18669;53.356;-1.464;2023-05-07T13:26:16;2.83;;;1.13;;
29838;SDS011;18669;53.356;-1.464;2023-05-07T13:29:01;4.40;;;1.90;;
29838;SDS011;18669;53.356;-1.464;2023-05-07T13:31:46;2.80;;;1.75;;
29838;SDS011;18669;53.356;-1.464;2023-05-07T13:34:31;8.27;;;2.05;;
29838;SDS011;18669;53.356;-1.464;2023-05-07T13:37:16;3.60;;;1.75;;
29838;SDS011;18669;53.356;-1.464;2023-05-07T13:40:01;3.90;;;1.70;;
29838;SDS011;18669;53.356;-1.464;2023-05-07T13:42:45;5.95;;;1.80;;
29838;SDS011;18669;53.356;-1.464;2023-05-07T13:45:30;5.10;;;2.55;;
29838;SDS011;18669;53.356;-1.464;2023-05-07T13:48:15;8.75;;;3.03;;
29838;SDS011;18669;53.356;-1.464;2023-05-07T13:51:00;3.72;;;1.83;;
29838;SDS011;18669;53.356;-1.464;2023-05-07T13:53:45;4.35;;;1.95;;
29838;SDS011;18669;53.356;-1.464;2023-05-07T13:56:30;4.95;;;1.70;;
29838;SDS011;18669;53.356;-1.464;2023-05-07T13:59:16;3.70;;;1.55;;
29838;SDS011;18669;53.356;-1.464;2023-05-07T14:02:01;6.33;;;1.53;;
29838;SDS011;18669;53.356;-1.464;2023-05-07T14:04:46;6.10;;;1.60;;
29838;SDS011;18669;53.356;-1.464;2023-05-07T14:07:31;4.78;;;1.33;;
29838;SDS011;18669;53.356;-1.464;2023-05-07T14:10:15;3.15;;;1.40;;
29838;SDS011;18669;53.356;-1.464;2023-05-07T14:13:00;7.20;;;1.60;;
29838;SDS011;18669;53.356;-1.464;2023-05-07T14:15:45;7.30;;;1.58;;
29838;SDS011;18669;53.356;-1.464;2023-05-07T14:18:32;5.88;;;1.52;;
29838;SDS011;18669;53.356;-1.464;2023-05-07T14:21:18;3.72;;;1.58;;
29838;SDS011;18669;53.356;-1.464;2023-05-07T14:24:03;3.30;;;1.30;;
29838;SDS011;18669;53.356;-1.464;2023-05-07T14:26:50;3.40;;;1.50;;
29838;SDS011;18669;53.356;-1.464;2023-05-07T14:29:35;4.15;;;1.30;;
29838;SDS011;18669;53.356;-1.464;2023-05-07T14:32:20;4.32;;;1.33;;
29838;SDS011;18669;53.356;-1.464;2023-05-07T14:35:06;3.80;;;1.30;;
29838;SDS011;18669;53.356;-1.464;2023-05-07T14:37:50;7.85;;;1.55;;
29838;SDS011;18669;53.356;-1.464;2023-05-07T14:40:35;8.48;;;1.38;;
29838;SDS011;18669;53.356;-1.464;2023-05-07T14:43:20;3.03;;;1.50;;
29838;SDS011;18669;53.356;-1.464;2023-05-07T14:46:05;7.18;;;1.45;;
29838;SDS011;18669;53.356;-1.464;2023-05-07T14:48:50;4.70;;;1.60;;
29838;SDS011;18669;53.356;-1.464;2023-05-07T14:51:35;4.72;;;1.65;;
29838;SDS011;18669;53.356;-1.464;2023-05-07T14:54:19;5.00;;;1.10;;
29838;SDS011;18669;53.356;-1.464;2023-05-07T14:57:04;7.75;;;1.67;;
29838;SDS011;18669;53.356;-1.464;2023-05-07T14:59:50;3.85;;;1.50;;
29838;SDS011;18669;53.356;-1.464;2023-05-07T15:02:35;3.90;;;1.40;;
29838;SDS011;18669;53.356;-1.464;2023-05-07T15:05:20;7.90;;;1.77;;
29838;SDS011;18669;53.356;-1.464;2023-05-07T15:08:05;5.63;;;1.40;;
29838;SDS011;18669;53.356;-1.464;2023-05-07T15:10:50;3.40;;;1.40;;
29838;SDS011;18669;53.356;-1.464;2023-05-07T15:13:35;4.45;;;1.50;;
29838;SDS011;18669;53.356;-1.464;2023-05-07T15:16:20;7.57;;;2.53;;
29838;SDS011;18669;53.356;-1.464;2023-05-07T15:19:05;2.47;;;1.42;;
29838;SDS011;18669;53.356;-1.464;2023-05-07T15:21:50;4.00;;;1.40;;
29838;SDS011;18669;53.356;-1.464;2023-05-07T15:24:35;5.88;;;1.50;;
29838;SDS011;18669;53.356;-1.464;2023-05-07T15:27:20;5.32;;;1.90;;
29838;SDS011;18669;53.356;-1.464;2023-05-07T15:30:05;2.00;;;1.30;;
29838;SDS011;18669;53.356;-1.464;2023-05-07T15:32:50;5.47;;;1.55;;
29838;SDS011;18669;53.356;-1.464;2023-05-07T15:35:35;6.65;;;1.80;;
29838;SDS011;18669;53.356;-1.464;2023-05-07T15:38:20;6.25;;;1.80;;
29838;SDS011;18669;53.356;-1.464;2023-05-07T15:41:05;6.27;;;1.93;;
29838;SDS011;18669;53.356;-1.464;2023-05-07T15:43:50;6.20;;;1.80;;
29838;SDS011;18669;53.356;-1.464;2023-05-07T15:46:36;5.65;;;1.80;;
29838;SDS011;18669;53.356;-1.464;2023-05-07T15:49:21;4.25;;;1.63;;
29838;SDS011;18669;53.356;-1.464;2023-05-07T15:52:06;4.03;;;1.75;;
29838;SDS011;18669;53.356;-1.464;2023-05-07T15:54:51;4.05;;;1.80;;
29838;SDS011;18669;53.356;-1.464;2023-05-07T15:57:36;3.53;;;1.65;;
29838;SDS011;18669;53.356;-1.464;2023-05-07T16:00:21;5.05;;;1.83;;
29838;SDS011;18669;53.356;-1.464;2023-05-07T16:06:46;3.67;;;1.58;;
29838;SDS011;18669;53.356;-1.464;2023-05-07T16:09:31;3.90;;;1.75;;
29838;SDS011;18669;53.356;-1.464;2023-05-07T16:12:16;5.40;;;1.70;;
29838;SDS011;18669;53.356;-1.464;2023-05-07T16:15:02;3.25;;;1.38;;
29838;SDS011;18669;53.356;-1.464;2023-05-07T16:17:47;5.93;;;1.67;;
29838;SDS011;18669;53.356;-1.464;2023-05-07T16:20:33;2.15;;;1.40;;
29838;SDS011;18669;53.356;-1.464;2023-05-07T16:23:18;2.97;;;2.05;;
29838;SDS011;18669;53.356;-1.464;2023-05-07T16:26:03;2.03;;;1.38;;
29838;SDS011;18669;53.356;-1.464;2023-05-07T16:28:48;5.50;;;1.70;;
29838;SDS011;18669;53.356;-1.464;2023-05-07T16:31:35;4.30;;;1.70;;
29838;SDS011;18669;53.356;-1.464;2023-05-07T16:34:20;4.45;;;1.67;;
29838;SDS011;18669;53.356;-1.464;2023-05-07T16:37:06;16.77;;;14.25;;
29838;SDS011;18669;53.356;-1.464;2023-05-07T16:39:51;2.78;;;1.30;;
29838;SDS011;18669;53.356;-1.464;2023-05-07T16:42:36;3.42;;;1.10;;
29838;SDS011;18669;53.356;-1.464;2023-05-07T16:45:21;2.25;;;0.93;;
29838;SDS011;18669;53.356;-1.464;2023-05-07T16:48:06;13.35;;;2.40;;
29838;SDS011;18669;53.356;-1.464;2023-05-07T16:50:51;6.88;;;2.60;;
29838;SDS011;18669;53.356;-1.464;2023-05-07T16:53:36;2.13;;;1.38;;
29838;SDS011;18669;53.356;-1.464;2023-05-07T16:56:21;6.85;;;1.20;;